Date,TemperatureHighF,TemperatureAvgF,TemperatureLowF,DewpointHighF,DewpointAvgF,DewpointLowF,HumidityHigh,HumidityAvg,HumidityLow,PressureMaxIn,PressureMinIn,WindSpeedMaxMPH,WindSpeedAvgMPH,GustSpeedMaxMPH,PrecipitationSumIn
2013-1-1,44,36,26,40,34,23,92,89,88,30.30,30.03,11,3,11,0.00
2013-1-2,35,26,21,25,19,13,92,76,42,30.30,30.18,11,2,11,0.00
2013-1-3,44,30,18,30,21,16,94,73,40,30.44,30.27,10,1,10,0.04
2013-1-4,47,33,20,28,19,14,94,60,32,30.50,30.33,11,2,11,0.00
2013-1-5,43,36,27,33,23,14,96,60,46,30.33,30.18,14,3,15,0.00
2013-1-6,47,33,22,32,22,13,94,68,34,30.41,30.24,13,2,13,0.00
2013-1-7,51,37,21,25,20,15,90,51,32,30.36,29.14,17,2,17,0.00
2013-1-8,57,44,28,49,30,16,94,62,40,30.24,30.06,15,2,15,0.12
2013-1-9,55,54,52,51,50,49,86,86,86,30.24,30.24,8,2,8,0.13
2013-1-12,52,39,30,35,32,28,96,78,44,30.03,29.85,23,7,23,0.37
2013-1-13,30,23,16,29,21,15,96,90,74,30.36,30.00,18,6,18,0.13
2013-1-14,34,24,14,16,13,10,96,66,46,30.44,30.30,15,4,15,0.13
2013-1-15,35,26,18,21,16,12,92,69,42,30.33,30.15,20,3,20,0.00
2013-1-16,42,28,15,21,16,13,96,66,36,30.27,30.12,15,2,15,0.13
2013-1-17,50,35,24,30,21,14,86,59,40,30.47,30.21,13,2,13,0.13
2013-1-18,56,40,24,29,24,21,94,59,32,30.50,29.23,18,4,18,0.00
2013-1-19,63,49,37,34,28,21,80,45,30,30.24,30.12,19,5,19,0.00
2013-1-20,61,46,31,34,26,13,86,46,32,30.30,30.15,18,5,18,0.00
2013-1-21,42,30,22,14,10,7,54,43,30,30.41,30.27,15,5,15,0.00
2013-1-22,48,33,22,22,14,8,56,46,34,30.33,30.21,14,4,14,0.00
2013-1-23,62,42,24,41,30,14,88,65,42,30.30,30.18,13,2,13,0.00
2013-1-24,45,40,35,33,22,17,90,50,40,30.33,30.12,21,8,21,0.00
2013-1-25,51,41,35,40,33,27,92,76,48,30.27,30.09,15,2,15,0.00
2013-1-26,60,46,35,30,21,12,82,40,20,30.30,30.15,17,6,17,0.00
2013-1-27,59,54,46,58,49,24,94,85,42,30.15,29.97,23,8,23,0.00
2013-1-28,71,66,59,64,62,58,94,86,74,30.03,29.91,23,8,23,0.00
2013-1-29,68,64,46,65,60,42,94,87,80,29.91,28.38,28,7,28,1.58
2013-1-30,47,34,21,43,27,12,92,75,54,30.09,29.59,32,11,32,1.58
2013-1-31,49,29,18,25,16,1,92,61,36,30.44,30.03,18,4,18,1.58
2013-2-1,45,27,13,13,4,-2,56,39,24,30.47,30.18,15,5,15,1.58
2013-2-2,54,39,24,27,18,9,60,44,32,30.30,30.18,18,2,18,1.58
2013-2-3,54,44,36,24,20,17,58,39,28,30.33,30.00,9,3,9,0.00
2013-2-4,62,50,36,41,31,20,88,50,32,30.00,29.88,17,4,17,1.58
2013-2-5,66,47,32,44,31,24,94,59,24,30.12,29.94,17,2,17,1.58
2013-2-6,66,51,41,36,30,23,58,45,32,30.15,30.00,20,7,20,1.58
2013-2-7,62,53,43,58,49,34,92,85,58,30.15,29.91,18,6,18,1.58
2013-2-8,54,42,33,40,31,25,92,68,40,30.33,30.12,14,5,14,1.58
2013-2-9,49,40,34,44,34,27,96,79,42,30.24,29.85,26,8,26,0.13
2013-2-10,66,54,39,62,37,19,94,58,28,30.09,29.68,28,11,28,1.58
2013-2-11,54,39,26,29,22,17,92,53,28,30.24,30.06,12,2,12,1.58
2013-2-12,50,41,33,47,28,20,94,60,44,30.18,29.94,16,5,16,1.58
2013-2-13,52,47,37,48,38,24,90,74,40,30.06,29.97,18,4,18,0.08
2013-2-14,57,44,32,32,28,24,86,56,36,30.21,29.97,16,3,16,0.00
2013-2-15,44,34,20,24,16,7,78,50,32,30.39,30.21,22,5,22,0.00
2013-2-16,38,30,20,26,17,11,90,58,38,30.36,30.15,18,5,18,0.00
2013-2-17,64,48,30,28,21,10,52,35,26,30.15,29.88,20,6,20,0.00
2013-2-18,59,51,34,51,35,20,84,55,32,30.18,29.68,33,11,33,0.08
2013-2-19,45,34,21,24,17,13,88,52,34,30.33,30.15,24,3,24,0.00
2013-2-20,34,32,28,30,20,11,90,63,40,30.30,30.06,18,7,18,0.13
2013-2-21,58,43,30,54,38,23,94,84,68,30.06,29.68,31,8,31,0.08
2013-2-22,39,29,21,34,18,14,94,66,44,30.15,29.88,26,7,26,0.00
2013-2-23,46,31,18,22,18,14,96,64,34,30.12,30.00,13,1,13,0.00
2013-2-24,59,44,28,31,24,16,68,48,30,30.03,29.88,20,6,20,0.00
2013-2-25,42,40,38,39,31,24,96,72,50,29.91,29.47,32,10,32,0.46
2013-2-26,48,37,33,44,35,31,98,92,88,29.94,29.44,22,9,22,0.04
2013-2-27,42,34,31,32,30,25,96,84,62,30.12,29.88,24,9,24,0.04
2013-2-28,35,32,28,28,26,25,96,80,68,30.21,30.09,21,7,21,0.00
2013-3-1,33,30,26,26,21,18,82,71,58,30.27,30.15,19,6,19,0.04
2013-3-2,39,29,21,23,19,13,96,69,42,30.36,30.21,16,4,16,0.00
2013-3-3,57,42,24,28,23,16,82,48,30,30.21,29.82,18,6,18,0.04
2013-3-4,67,55,44,44,35,26,76,47,36,29.91,29.68,27,7,27,0.04
2013-3-5,45,38,30,37,23,14,98,58,36,30.36,29.91,37,11,37,0.08
2013-3-6,49,36,23,22,17,12,68,48,32,30.41,30.24,13,4,13,0.04
2013-3-7,62,49,36,26,23,19,50,37,26,30.27,30.15,17,6,17,0.04
2013-3-8,61,53,43,34,29,24,52,41,36,30.27,30.06,19,9,19,0.00
2013-3-9,80,62,52,74,45,30,94,58,38,30.06,29.76,29,10,29,1.29
2013-3-10,76,61,30,70,57,27,96,85,82,30.00,29.71,27,8,27,0.79
2013-3-11,46,34,27,29,24,20,92,71,40,30.09,29.94,22,9,22,0.79
2013-3-12,55,42,27,34,27,16,94,59,30,30.33,30.03,22,4,22,0.79
2013-3-13,54,38,27,22,17,14,66,43,26,30.47,30.33,11,1,11,0.00
2013-3-14,72,53,33,40,26,15,52,35,26,30.39,30.15,24,5,24,0.00
2013-3-15,79,65,50,44,40,35,70,42,24,30.15,29.88,27,6,27,0.00
2013-3-16,76,63,52,45,39,34,52,41,32,29.91,29.82,19,5,19,0.00
2013-3-17,66,55,42,61,48,32,96,79,50,29.91,29.74,23,7,23,0.24
2013-3-18,64,52,34,60,41,23,94,67,34,30.09,29.74,18,5,18,0.00
2013-3-19,58,44,30,28,20,13,86,41,20,30.30,30.03,17,5,17,0.00
2013-3-20,49,38,28,29,19,11,86,47,28,30.39,30.12,19,4,19,0.00
2013-3-21,36,35,34,34,19,13,96,55,42,30.12,29.85,17,7,17,0.17
2013-3-22,54,43,34,50,41,33,98,93,86,29.97,29.82,18,6,18,0.54
2013-3-23,46,41,38,44,40,38,98,96,92,29.94,29.74,15,6,15,0.00
2013-3-24,58,38,25,54,32,17,100,82,62,30.18,29.68,32,12,32,0.04
2013-3-25,34,28,24,21,18,15,80,67,52,30.36,30.09,26,10,26,0.00
2013-3-26,47,32,19,26,20,16,98,65,38,30.44,30.33,15,2,15,0.00
2013-3-27,60,45,26,26,22,18,80,44,26,30.33,30.15,18,6,18,0.00
2013-3-28,69,57,47,44,34,24,62,41,38,30.24,30.15,16,5,16,0.00
2013-3-29,71,62,54,66,56,44,96,82,60,30.24,28.97,15,4,15,0.17
2013-3-30,71,59,54,66,57,53,98,93,76,30.15,29.94,19,4,19,0.16
2013-3-31,69,60,46,64,50,38,96,71,36,30.06,29.91,24,4,24,0.04
2013-4-1,66,49,39,44,41,32,100,76,42,30.21,30.03,18,5,18,0.04
2013-4-2,44,41,36,34,32,29,90,69,58,30.24,30.18,15,8,15,0.50
2013-4-3,50,42,37,41,29,25,98,61,42,30.27,30.15,28,7,28,0.04
2013-4-4,60,48,40,42,38,33,100,72,42,30.18,30.09,15,3,15,0.00
2013-4-5,70,52,31,46,35,31,100,60,26,30.27,30.03,13,3,13,0.00
2013-4-6,73,63,55,43,38,31,54,40,32,30.03,29.88,28,8,28,0.00
2013-4-7,75,64,53,62,56,43,98,75,52,29.97,29.82,23,6,23,0.00
2013-4-8,71,66,60,64,60,56,98,83,74,29.88,29.79,21,8,21,0.29
2013-4-9,80,72,64,66,61,56,86,71,52,29.88,29.79,24,9,24,0.00
2013-4-10,74,58,47,65,53,46,98,84,66,29.97,29.79,27,8,27,1.29
2013-4-11,52,44,34,46,35,27,100,72,42,29.94,29.79,21,8,21,0.04
2013-4-12,58,44,33,37,31,25,98,64,38,30.09,29.85,19,4,19,0.00
2013-4-13,70,54,38,48,40,33,90,61,36,30.12,29.85,16,5,16,0.00
2013-4-14,78,67,57,48,44,40,58,44,32,29.85,29.65,28,7,28,0.00
2013-4-15,80,67,56,63,56,45,88,68,54,29.94,29.79,18,5,18,0.00
2013-4-16,79,62,52,64,56,50,96,83,56,30.06,29.91,13,4,13,0.00
2013-4-17,83,73,63,69,65,59,94,76,54,30.03,29.74,26,8,27,0.04
2013-4-18,83,64,37,78,59,24,100,83,56,30.06,28.61,26,10,27,3.07
2013-4-19,55,39,32,30,24,21,72,57,32,30.15,30.03,23,10,23,3.07
2013-4-20,68,52,34,36,32,27,94,50,26,30.24,30.12,15,3,15,0.00
2013-4-21,68,58,49,37,34,31,56,42,28,30.33,30.18,22,6,22,0.00
2013-4-22,72,61,48,41,36,31,54,41,30,30.24,29.97,24,6,24,0.00
2013-4-23,62,56,43,56,49,40,98,79,46,30.18,29.88,16,6,16,0.00
2013-4-24,54,48,34,50,37,20,98,70,28,30.36,30.15,15,5,15,0.00
2013-4-25,73,42,30,33,30,23,98,69,18,30.42,30.27,11,1,11,0.00
2013-4-26,68,53,49,66,46,30,98,80,34,30.33,30.15,22,9,24,0.00
2013-4-27,79,71,58,75,68,56,90,88,86,30.15,29.97,25,5,25,0.00
2013-4-28,68,55,52,56,52,47,96,91,48,30.09,29.94,10,1,10,0.00
2013-4-29,84,69,52,55,50,46,96,56,32,30.00,29.88,17,4,17,0.00
2013-4-30,82,72,59,54,47,40,74,42,26,29.97,29.91,23,6,23,0.00
2013-5-1,85,70,60,60,52,43,78,54,34,30.15,29.97,18,5,18,0.00
2013-5-2,62,60,57,57,56,53,94,86,80,30.18,30.12,10,4,10,0.00
2013-5-5,53,51,50,49,48,47,92,89,82,30.12,30.09,11,5,11,0.00
2013-5-6,66,54,48,53,50,48,98,87,58,30.18,30.06,13,3,13,0.00
2013-5-7,78,63,48,57,50,45,100,68,34,30.18,30.06,9,2,9,0.00
2013-5-8,79,73,66,59,55,52,80,55,40,30.15,30.00,20,4,20,0.00
2013-5-9,82,67,60,77,63,57,98,88,56,30.09,30.00,20,3,20,0.00
2013-5-12,70,61,51,49,38,30,90,46,26,30.33,30.21,13,3,13,0.00
2013-5-13,83,66,50,57,49,43,82,57,36,30.24,30.12,17,4,17,0.00
2013-5-14,88,74,61,56,52,48,70,49,28,30.15,30.06,17,4,17,0.00
2013-5-15,84,69,64,79,58,46,98,69,50,30.09,29.94,16,3,16,0.00
2013-5-16,80,67,63,76,65,62,98,94,82,30.00,29.91,14,3,14,0.00
2013-5-17,85,72,64,68,64,61,98,79,50,30.03,29.94,10,2,10,0.00
2013-5-18,86,75,66,76,71,65,96,86,72,30.00,29.91,15,5,15,0.00
2013-5-19,87,78,71,72,66,60,96,70,42,29.94,29.76,25,7,25,0.00
2013-5-20,76,71,61,72,68,60,100,88,76,29.91,29.82,33,5,33,0.00
2013-5-21,66,63,60,64,61,58,98,95,90,30.00,29.71,27,6,27,0.00
2013-5-22,76,66,58,66,58,53,98,76,50,30.06,29.88,17,3,17,0.00
2013-5-23,76,66,57,65,58,53,98,78,52,30.24,30.06,105,2,105,0.00
2013-5-24,78,67,57,63,58,54,94,74,56,30.36,30.24,20,7,20,0.00
2013-5-25,83,70,60,66,59,51,88,68,54,30.33,30.18,16,5,16,0.00
2013-5-26,82,74,66,67,64,60,96,74,52,30.24,30.09,22,6,22,0.00
2013-5-27,83,75,69,69,65,60,94,73,52,30.12,29.94,27,7,27,0.00
2013-5-28,82,75,71,68,64,61,88,70,54,30.00,29.91,25,7,25,0.00
2013-5-29,79,74,69,67,65,63,88,72,62,30.03,29.88,23,8,23,0.00
2013-5-30,78,72,63,71,68,61,98,86,70,29.97,29.85,24,8,24,0.00
2013-6-4,67,67,67,65,65,65,92,92,92,30.03,30.03,4,3,4,0.00
2013-6-5,78,70,64,73,66,62,98,87,70,30.09,29.94,29,5,29,0.00
2013-6-6,75,68,57,68,62,56,98,81,56,30.06,30.00,31,2,31,0.00
2013-6-7,78,67,56,66,54,49,100,68,40,30.09,30.03,25,2,25,0.00
2013-6-8,82,69,54,61,57,53,98,69,42,30.06,29.97,15,3,15,0.00
2013-6-9,83,73,64,67,62,55,92,69,42,30.03,29.97,29,4,29,0.00
2013-6-10,92,79,66,74,66,61,88,68,42,30.06,30.00,59,2,59,0.00
2013-6-11,92,82,70,73,68,62,92,67,40,30.12,30.03,15,3,15,0.00
2013-6-12,92,80,74,72,70,63,90,74,42,30.12,30.03,21,4,21,0.00
2013-6-13,92,81,70,74,69,62,96,70,42,30.12,30.03,37,2,37,0.00
2013-6-14,94,80,70,75,70,68,92,74,48,30.12,30.00,13,4,13,0.00
2013-6-15,90,78,69,73,69,66,96,76,54,30.15,30.03,15,5,15,0.00
2013-6-16,91,80,70,79,74,68,94,81,54,30.12,30.00,118,3,118,0.00
2013-6-17,76,71,67,72,68,66,96,91,74,30.06,29.94,113,3,113,0.00
2013-6-18,84,77,66,76,65,56,96,70,42,30.12,30.03,15,2,15,0.00
2013-6-19,88,75,65,67,63,58,96,69,40,30.15,30.06,15,3,15,0.00
2013-6-20,90,78,68,72,68,65,94,72,52,30.18,30.06,21,6,21,0.00
2013-6-21,78,76,75,73,72,72,90,88,82,30.15,30.09,25,6,25,0.00
2013-6-25,86,80,76,68,67,65,76,64,52,29.97,29.94,19,5,19,0.00
2013-6-26,95,84,75,74,71,68,92,67,46,30.03,29.94,29,3,29,0.00
2013-6-27,101,86,73,75,71,66,94,65,36,30.09,29.97,18,1,18,0.00
2013-6-28,92,83,74,75,66,56,86,59,36,30.06,29.91,25,4,25,0.00
2013-6-29,87,80,69,52,50,40,48,35,28,29.97,29.91,22,5,22,0.00
2013-6-30,70,64,60,59,55,49,92,73,48,30.03,29.94,11,1,11,0.00
2013-7-3,86,77,60,54,48,40,78,38,22,30.21,30.09,13,3,13,0.00
2013-7-4,89,74,59,59,53,44,84,52,22,30.15,30.06,10,2,10,0.00
2013-7-5,93,76,61,59,56,50,86,52,26,30.15,30.00,15,3,15,0.00
2013-7-6,91,76,66,62,57,53,74,53,30,30.12,30.03,11,3,11,0.00
2013-7-7,93,80,69,67,61,54,82,56,30,30.15,30.06,14,4,14,0.00
2013-7-8,94,82,69,69,64,60,82,59,34,30.21,30.09,12,3,12,0.00
2013-7-9,97,84,73,69,66,61,86,57,32,30.18,30.06,80,2,80,0.00
2013-7-10,101,83,71,68,66,62,82,59,30,30.12,30.06,13,1,13,0.00
2013-7-11,96,88,78,69,63,56,68,44,30,30.12,30.03,11,4,11,0.00
2013-7-12,96,82,71,66,60,54,66,49,32,30.15,30.06,17,5,17,0.00
2013-7-13,94,78,66,66,56,50,92,50,30,30.15,30.06,13,4,13,0.00
2013-7-14,87,77,66,58,53,46,74,45,26,30.15,30.03,18,4,18,0.00
2013-7-15,92,79,71,67,62,54,82,57,34,30.27,30.12,21,5,21,0.00
2013-7-16,89,76,70,75,70,61,94,84,46,30.33,30.24,22,3,22,0.00
2013-7-17,92,81,72,73,67,58,96,67,34,30.39,30.27,19,3,19,0.00
2013-7-18,79,71,69,69,68,65,94,90,64,30.30,30.24,3,0,3,0.00
2013-7-19,76,74,73,67,66,65,82,77,70,30.06,30.06,6,1,6,0.00
2013-7-20,98,80,69,69,66,61,94,66,34,30.06,29.94,19,3,19,0.00
2013-7-21,85,75,70,77,70,65,94,84,64,30.06,29.94,10,2,10,0.00
2013-7-22,95,79,69,72,66,59,92,67,38,30.09,29.94,64,4,64,0.00
2013-8-11,90,82,74,73,70,66,94,68,48,30.21,30.12,11,2,11,0.00
2013-8-12,85,78,71,79,72,67,94,85,64,30.21,30.06,17,1,23,0.00
2013-8-13,88,79,68,83,75,65,96,88,82,30.18,30.06,19,2,19,0.00
2013-8-14,76,68,64,66,64,58,90,87,56,30.18,30.15,10,3,10,0.00
2013-8-15,81,68,59,61,58,53,96,73,44,30.24,30.12,10,2,10,0.00
2013-8-16,82,69,62,63,60,57,94,74,48,30.21,30.12,10,3,10,0.00
2013-8-17,79,69,59,69,60,56,96,75,48,30.24,30.15,20,2,20,0.00
2013-8-18,85,72,63,66,62,56,94,73,42,30.24,30.18,12,2,12,0.00
2013-8-19,71,68,65,68,65,63,94,92,90,30.21,30.18,4,0,4,0.00
2013-8-26,84,80,71,70,69,68,90,71,64,30.21,30.21,0,0,0,0.00
2013-9-11,92,76,68,70,66,61,94,73,36,30.24,30.15,8,0,8,0.00
2013-9-12,93,79,69,72,67,62,94,68,38,30.21,30.12,13,2,13,0.00
2013-9-13,86,74,64,68,54,47,82,53,32,30.21,30.09,15,5,15,0.00
2013-9-14,86,69,57,54,51,48,88,56,32,30.18,30.06,15,4,15,0.00
2013-9-15,91,74,60,66,56,48,74,55,34,30.18,30.09,13,2,13,0.00
2013-9-16,80,73,68,68,65,61,92,76,56,30.30,30.15,11,3,11,0.00
2013-9-17,84,74,68,70,64,59,92,73,46,30.27,30.09,12,4,12,0.00
2013-9-18,90,78,71,68,64,61,86,64,40,30.15,30.03,15,4,15,0.00
2013-9-19,92,79,71,69,65,61,88,63,40,30.12,29.97,22,4,22,0.00
2013-9-20,72,71,70,68,68,68,92,92,90,30.06,30.03,10,3,12,0.00
2013-9-21,74,61,53,69,51,44,96,74,36,30.03,30.00,6,0,8,0.00
2013-9-22,69,54,49,54,50,46,98,86,48,30.06,30.00,11,2,11,0.00
2013-9-24,66,61,58,59,58,57,96,89,74,29.97,29.97,3,0,3,0.00
2013-9-25,83,67,57,66,58,54,98,76,42,30.00,29.94,11,1,11,0.00
2013-9-26,86,72,59,61,58,54,94,67,34,30.06,29.94,13,5,13,0.00
2013-9-27,86,73,63,63,59,56,92,64,40,30.12,30.03,18,6,18,0.00
2013-9-28,86,76,68,81,67,59,94,75,60,30.18,30.03,20,4,20,0.00
2013-9-29,80,71,58,74,61,51,100,73,42,30.18,30.03,13,2,13,0.00
2013-9-30,83,71,60,69,62,57,98,78,46,30.03,29.97,12,2,12,0.00
2013-10-1,83,72,66,71,66,63,94,85,54,30.09,29.97,13,2,13,0.00
2013-10-9,79,66,52,51,46,36,86,52,24,30.21,30.12,10,2,10,0.00
2013-10-10,78,63,50,55,51,46,96,68,42,30.18,30.03,13,3,13,0.00
2013-10-11,74,67,56,64,59,53,94,77,60,30.03,29.97,22,5,22,0.00
2013-10-12,77,67,62,72,64,56,96,89,80,30.27,30.00,18,3,18,0.00
2013-10-13,73,64,60,57,53,46,84,67,50,30.39,30.27,17,5,17,0.00
2013-10-14,67,62,58,63,57,49,96,83,70,30.33,30.06,18,6,18,0.00
2013-10-15,78,64,51,73,58,44,96,83,62,30.15,30.00,13,4,13,0.00
2013-10-16,61,52,40,48,40,35,94,65,44,30.18,30.06,12,3,12,0.00
2013-10-17,66,52,42,54,44,40,100,78,42,30.12,30.06,10,1,10,0.00
2013-10-18,66,52,44,49,46,43,98,81,48,30.12,30.03,11,2,11,0.00
2013-10-19,62,51,41,48,37,32,94,62,36,30.21,30.09,13,2,13,0.00
2013-10-20,61,44,39,40,38,36,94,79,42,30.09,30.03,14,1,14,0.00
2013-10-23,65,53,39,43,37,30,96,59,32,30.24,30.06,6,1,8,0.00
2013-10-24,57,46,39,43,33,24,96,62,38,30.44,30.12,16,3,16,0.00
2013-10-25,60,46,35,32,27,23,70,48,30,30.50,30.27,18,3,18,0.00
2013-10-26,69,54,40,53,43,30,94,68,50,30.27,30.15,13,2,13,0.00
2013-10-27,68,53,42,50,40,30,96,67,28,30.18,30.06,10,1,10,0.00
2013-10-28,67,59,43,56,52,41,94,79,54,30.21,30.09,15,2,15,0.00
2013-10-29,69,64,57,65,61,55,94,89,80,30.18,30.06,15,6,15,0.00
2013-10-30,77,70,64,72,66,60,92,86,82,30.12,29.88,20,4,20,0.00
2013-10-31,77,63,49,72,57,44,94,83,38,29.88,29.62,24,4,25,0.00
2013-11-1,68,56,44,54,43,38,98,67,34,30.09,29.85,21,2,21,0.00
2013-11-2,56,46,36,44,38,32,96,75,46,30.30,30.09,15,4,17,0.00
2013-11-3,38,37,37,36,36,35,94,94,94,30.27,30.27,0,0,0,0.00
2013-11-6,70,48,33,65,43,31,92,83,60,30.39,29.97,25,5,25,0.00
2013-11-7,63,46,34,47,36,31,96,74,34,30.50,30.39,14,1,14,0.00
2013-11-8,64,52,38,41,37,35,96,62,34,30.39,30.12,18,4,18,0.00
2013-11-9,67,54,45,44,41,36,96,65,42,30.33,30.15,12,2,12,0.00
2013-11-10,70,55,45,52,44,38,96,71,36,30.41,30.33,14,1,14,0.00
2013-11-11,70,55,42,54,48,40,96,77,50,30.47,30.24,18,2,18,0.00
2013-11-12,42,33,23,40,20,12,94,59,36,30.74,30.44,18,6,18,0.00
2013-11-13,51,35,22,20,16,12,78,48,28,30.68,30.36,13,3,13,0.00
2013-11-14,34,31,28,16,15,13,56,50,46,30.36,30.27,5,0,5,0.00
2013-11-16,69,65,62,61,60,59,94,84,72,29.88,29.74,26,9,26,0.00
2013-11-20,51,50,46,21,14,12,38,23,22,30.09,30.06,21,8,22,0.00
2013-11-27,39,26,17,13,8,5,70,47,32,30.41,30.30,15,3,17,0.00
2013-11-28,54,36,22,24,16,7,74,44,30,30.44,30.27,14,3,16,0.00
2013-11-29,55,38,24,26,20,14,90,53,22,30.50,30.30,14,2,14,0.00
2013-11-30,58,46,32,43,32,17,86,58,46,30.33,30.12,20,4,20,0.00
2013-12-1,56,50,42,49,45,40,92,83,70,30.15,29.91,8,1,10,0.00
2013-12-2,66,53,39,58,46,37,98,81,50,29.94,29.71,10,1,10,0.00
2013-12-3,70,57,43,58,50,41,100,81,46,29.74,29.59,15,4,15,0.00
2013-12-4,59,48,30,50,45,27,98,89,56,30.00,29.59,19,6,19,0.00
2013-12-5,30,24,20,28,18,10,94,79,56,30.27,30.00,15,6,15,0.00
2013-12-6,20,18,13,18,12,0,92,78,54,30.53,30.21,12,6,14,0.00
2013-12-7,23,16,6,8,2,-6,58,53,44,30.59,30.27,18,6,18,0.00
2013-12-8,30,25,21,29,22,7,98,89,54,30.27,30.03,18,4,18,0.00
2013-12-9,27,23,18,24,16,9,94,73,50,30.36,30.15,13,4,13,0.00
2013-12-10,18,18,15,16,16,14,94,92,92,30.36,30.33,12,5,12,0.00
2013-12-11,39,30,21,30,16,8,98,58,44,30.59,30.41,12,4,12,0.00
2013-12-12,43,28,13,22,15,7,90,60,42,30.56,30.27,13,3,13,0.00
2013-12-13,40,35,29,37,29,18,96,82,52,30.27,29.85,15,4,15,0.00
2013-12-14,65,40,22,60,37,21,100,88,78,30.27,29.85,21,5,21,0.00
2013-12-15,51,30,18,30,24,17,98,80,42,30.30,30.15,13,1,13,0.00
2013-12-16,62,46,38,34,29,27,64,54,30,30.21,30.12,10,3,12,0.00
2013-12-17,60,43,29,38,29,23,96,61,28,30.33,30.18,15,2,15,0.00
2013-12-18,62,47,28,36,30,21,90,54,36,30.30,30.00,21,4,21,0.00
2013-12-19,61,56,51,56,47,35,84,72,50,30.00,29.76,23,8,23,0.00
2013-12-20,64,43,31,58,41,30,100,92,74,29.94,29.76,17,6,17,0.00
2013-12-21,54,44,27,50,41,24,98,89,82,29.82,28.50,14,2,14,0.04
2013-12-22,27,11,5,24,6,-3,98,80,64,30.36,29.76,16,7,16,0.00
2013-12-23,30,16,3,18,8,-5,86,71,52,30.53,30.33,13,3,13,0.04
2013-12-24,43,27,13,22,16,9,90,65,42,30.53,30.24,17,6,17,0.04
2013-12-25,44,32,24,28,24,19,92,73,52,30.39,30.24,10,2,15,0.04
2013-12-26,51,34,21,35,23,19,94,67,38,30.44,30.30,14,2,14,0.04
2013-12-27,58,41,27,30,26,20,90,57,28,30.44,30.33,11,2,11,0.04
2013-12-28,55,42,32,32,26,21,70,54,32,30.33,30.00,14,2,14,0.00
2013-12-29,42,30,20,34,19,8,82,63,56,30.30,29.97,18,5,18,0.00
2013-12-30,38,25,14,18,12,5,82,60,42,30.39,30.21,11,3,11,0.00
2013-12-31,53,34,18,26,19,13,90,60,28,30.42,30.15,15,3,15,0.00
2014-1-1,54,40,21,31,23,15,84,51,37,30.18,29.94,24,5,24,0.00
2014-1-2,26,16,8,16,6,1,86,64,48,30.47,30.15,21,5,21,0.00